Terminal Aerodrome Forecast
Issued by NWS Blacksburg, VA

Current Version | Previous Version | Graphics & Text | Print | Product List | Glossary On
Versions: 1 2 3 4 5 6 7 8 9 10 11 12 13 14 15 16 17 18 19 20 21 22 23 24 25 26 27 28 29
000
FTUS41 KRNK 250540
TAFBLF
TAF
KBLF 250540Z 2506/2606 00000KT P6SM BKN120
     FM251300 15005KT P6SM -RA OVC035
     FM251600 18010KT 5SM RA BR OVC012
     FM251800 18009KT 6SM -RA OVC009
     FM260000 25012KT 4SM -DZ BR OVC007=

USA.gov is the U.S. government's official web portal to all federal, state and local government web resources and services.